createdAt,value
2022-11-27T00:08:15.302Z,8.43
2022-11-27T00:23:03.705Z,10.46
2022-11-27T00:37:52.464Z,9.89
2022-11-27T00:52:41.848Z,9.08
2022-11-27T01:07:32.072Z,12.27
2022-11-27T01:22:22.059Z,10.26
2022-11-27T01:37:12.270Z,7.79
2022-11-27T01:52:02.562Z,7.91
2022-11-27T02:06:53.488Z,8.48
2022-11-27T02:21:45.816Z,7.74
2022-11-27T02:36:39.692Z,8.41
2022-11-27T02:51:34.973Z,8.27
2022-11-27T03:06:28.000Z,8.18
2022-11-27T03:21:30.232Z,8.42
2022-11-27T03:36:25.405Z,8.26
2022-11-27T03:51:22.357Z,8.78
2022-11-27T04:06:16.275Z,8.83
2022-11-27T04:21:07.445Z,9.12
2022-11-27T04:35:58.283Z,8.98
2022-11-27T04:50:49.282Z,9.24
2022-11-27T05:05:39.274Z,8.29
2022-11-27T05:20:30.024Z,7.34
2022-11-27T05:35:20.027Z,8.76
2022-11-27T05:50:10.783Z,8.27
2022-11-27T06:05:01.172Z,8.44
2022-11-27T06:19:51.327Z,8.34
2022-11-27T06:34:41.356Z,7.46
2022-11-27T06:49:30.366Z,7.11
2022-11-27T07:04:20.132Z,7.70
2022-11-27T07:19:10.552Z,6.53
2022-11-27T07:34:00.220Z,6.68
2022-11-27T07:48:50.573Z,6.77
2022-11-27T08:03:40.800Z,7.71
2022-11-27T08:18:30.862Z,6.03
2022-11-27T08:33:32.612Z,4.99
2022-11-27T08:48:23.437Z,5.21
2022-11-27T09:03:15.164Z,5.41
2022-11-27T09:18:05.717Z,6.59
2022-11-27T09:32:56.094Z,7.92
2022-11-27T09:47:50.207Z,7.91
2022-11-27T10:02:44.059Z,10.88
2022-11-27T10:17:38.273Z,12.52
2022-11-27T10:32:54.765Z,12.93
2022-11-27T10:47:22.448Z,12.20
2022-11-27T11:02:30.560Z,10.72
2022-11-27T11:17:25.898Z,11.11
2022-11-27T11:32:21.100Z,12.27
2022-11-27T11:47:18.757Z,12.18
2022-11-27T12:02:33.820Z,12.86
2022-11-27T12:17:39.705Z,12.06
2022-11-27T12:32:39.296Z,11.87
2022-11-27T12:47:40.409Z,11.39
2022-11-27T13:02:42.778Z,11.14
2022-11-27T13:17:39.649Z,11.76
2022-11-27T13:32:38.692Z,12.11
2022-11-27T13:47:31.276Z,13.27
2022-11-27T14:02:22.373Z,12.51
2022-11-27T14:17:11.925Z,13.79
2022-11-27T14:32:04.540Z,12.58
2022-11-27T14:46:55.628Z,11.96
2022-11-27T15:01:46.239Z,11.49
2022-11-27T15:16:36.356Z,12.71
2022-11-27T15:31:32.798Z,13.99
2022-11-27T15:46:26.446Z,12.99
2022-11-27T16:01:17.183Z,12.47
2022-11-27T16:16:07.761Z,12.27
2022-11-27T16:30:58.147Z,12.32
2022-11-27T16:45:48.326Z,13.37
2022-11-27T17:00:38.775Z,12.48
2022-11-27T17:15:29.473Z,15.00
2022-11-27T17:30:19.738Z,14.88
2022-11-27T17:45:09.857Z,17.20
2022-11-27T18:00:00.610Z,15.63
2022-11-27T18:14:55.407Z,14.71
2022-11-27T18:29:48.540Z,14.30
2022-11-27T18:44:44.804Z,15.27
2022-11-27T18:59:32.646Z,16.07
2022-11-27T19:14:23.499Z,16.20
2022-11-27T19:29:14.249Z,16.86
2022-11-27T19:44:03.713Z,17.36
2022-11-27T19:58:54.834Z,15.27
2022-11-27T20:28:36.130Z,16.52
2022-11-27T20:43:26.937Z,16.20
2022-11-27T20:58:17.628Z,17.91
2022-11-27T21:13:08.085Z,17.14
2022-11-27T21:27:59.251Z,18.83
2022-11-27T21:42:50.119Z,16.98
2022-11-27T21:57:41.214Z,18.74
2022-11-27T22:12:32.030Z,16.59
2022-11-27T22:27:23.335Z,16.70
2022-11-27T22:42:14.253Z,16.48
2022-11-27T22:57:05.242Z,15.86
2022-11-27T23:11:55.735Z,15.79
2022-11-27T23:41:48.915Z,14.80
2022-11-27T23:56:39.681Z,14.63
